sensor_id;sensor_type;location;lat;lon;timestamp;temperature;humidity
51783;DHT22;37845;53.196;5.638;2023-05-10T00:13:26;12.70;99.90
51783;DHT22;37845;53.196;5.638;2023-05-10T00:16:08;12.50;99.90
51783;DHT22;37845;53.196;5.638;2023-05-10T00:18:40;12.80;99.90
51783;DHT22;37845;53.196;5.638;2023-05-10T02:34:23;12.30;99.90
51783;DHT22;37845;53.196;5.638;2023-05-10T02:36:50;12.30;99.90
51783;DHT22;37845;53.196;5.638;2023-05-10T02:39:18;12.30;99.90
51783;DHT22;37845;53.196;5.638;2023-05-10T02:41:44;12.30;99.90
51783;DHT22;37845;53.196;5.638;2023-05-10T02:44:22;12.30;99.90
51783;DHT22;37845;53.196;5.638;2023-05-10T02:46:49;12.50;99.90
51783;DHT22;37845;53.196;5.638;2023-05-10T02:49:16;13.70;99.90
51783;DHT22;37845;53.196;5.638;2023-05-10T02:51:49;12.30;99.90
51783;DHT22;37845;53.196;5.638;2023-05-10T02:54:18;13.20;99.90
51783;DHT22;37845;53.196;5.638;2023-05-10T02:56:47;12.30;99.90
51783;DHT22;37845;53.196;5.638;2023-05-10T02:59:20;12.20;99.90
51783;DHT22;37845;53.196;5.638;2023-05-10T03:01:45;12.20;99.90
51783;DHT22;37845;53.196;5.638;2023-05-10T03:04:11;12.30;99.90
51783;DHT22;37845;53.196;5.638;2023-05-10T03:06:37;12.20;99.90
51783;DHT22;37845;53.196;5.638;2023-05-10T03:09:05;12.20;99.90
51783;DHT22;37845;53.196;5.638;2023-05-10T03:20:28;12.20;99.90
51783;DHT22;37845;53.196;5.638;2023-05-10T03:23:13;12.10;99.90
51783;DHT22;37845;53.196;5.638;2023-05-10T03:25:41;12.10;99.90
51783;DHT22;37845;53.196;5.638;2023-05-10T03:28:11;12.10;99.90
51783;DHT22;37845;53.196;5.638;2023-05-10T03:30:37;12.10;99.90
51783;DHT22;37845;53.196;5.638;2023-05-10T03:33:04;11.70;99.90
51783;DHT22;37845;53.196;5.638;2023-05-10T03:35:31;12.00;99.90
51783;DHT22;37845;53.196;5.638;2023-05-10T03:38:00;11.90;99.90
51783;DHT22;37845;53.196;5.638;2023-05-10T03:40:26;12.10;99.90
51783;DHT22;37845;53.196;5.638;2023-05-10T03:42:54;12.10;99.90
51783;DHT22;37845;53.196;5.638;2023-05-10T03:45:20;12.10;99.90
51783;DHT22;37845;53.196;5.638;2023-05-10T03:47:45;12.10;99.90
51783;DHT22;37845;53.196;5.638;2023-05-10T03:50:11;12.10;99.90
51783;DHT22;37845;53.196;5.638;2023-05-10T03:52:37;12.10;99.90
51783;DHT22;37845;53.196;5.638;2023-05-10T03:55:05;12.10;99.90
51783;DHT22;37845;53.196;5.638;2023-05-10T03:57:31;12.10;99.90
51783;DHT22;37845;53.196;5.638;2023-05-10T03:59:56;12.00;99.90
51783;DHT22;37845;53.196;5.638;2023-05-10T04:02:22;12.00;99.90
51783;DHT22;37845;53.196;5.638;2023-05-10T04:04:48;12.00;99.90
51783;DHT22;37845;53.196;5.638;2023-05-10T04:07:16;12.10;99.90
51783;DHT22;37845;53.196;5.638;2023-05-10T04:09:42;12.10;99.90
51783;DHT22;37845;53.196;5.638;2023-05-10T04:12:11;12.40;99.90
51783;DHT22;37845;53.196;5.638;2023-05-10T04:14:36;11.30;99.90
51783;DHT22;37845;53.196;5.638;2023-05-10T04:17:02;12.10;99.90
51783;DHT22;37845;53.196;5.638;2023-05-10T04:19:30;11.80;99.90
51783;DHT22;37845;53.196;5.638;2023-05-10T04:22:09;12.00;99.90
51783;DHT22;37845;53.196;5.638;2023-05-10T04:30:10;12.30;99.90
51783;DHT22;37845;53.196;5.638;2023-05-10T04:32:36;10.80;99.90
51783;DHT22;37845;53.196;5.638;2023-05-10T04:35:02;12.20;99.90
51783;DHT22;37845;53.196;5.638;2023-05-10T04:37:30;12.10;99.90
51783;DHT22;37845;53.196;5.638;2023-05-10T04:39:55;12.10;99.90
51783;DHT22;37845;53.196;5.638;2023-05-10T04:42:21;12.30;99.90
51783;DHT22;37845;53.196;5.638;2023-05-10T04:44:50;12.20;99.90
51783;DHT22;37845;53.196;5.638;2023-05-10T04:47:17;11.70;99.90
51783;DHT22;37845;53.196;5.638;2023-05-10T04:49:42;12.30;99.90
51783;DHT22;37845;53.196;5.638;2023-05-10T04:52:08;11.30;99.90
51783;DHT22;37845;53.196;5.638;2023-05-10T04:54:34;12.10;99.90
51783;DHT22;37845;53.196;5.638;2023-05-10T04:57:00;11.50;99.90
51783;DHT22;37845;53.196;5.638;2023-05-10T04:59:25;12.20;99.90
51783;DHT22;37845;53.196;5.638;2023-05-10T05:01:51;12.10;99.90
51783;DHT22;37845;53.196;5.638;2023-05-10T05:04:20;12.20;99.90
51783;DHT22;37845;53.196;5.638;2023-05-10T05:12:51;11.30;99.90
51783;DHT22;37845;53.196;5.638;2023-05-10T05:15:16;11.00;99.90
51783;DHT22;37845;53.196;5.638;2023-05-10T05:17:42;12.20;99.90
51783;DHT22;37845;53.196;5.638;2023-05-10T05:20:08;12.10;99.90
51783;DHT22;37845;53.196;5.638;2023-05-10T05:22:35;12.20;99.90
51783;DHT22;37845;53.196;5.638;2023-05-10T05:25:01;12.20;99.90
51783;DHT22;37845;53.196;5.638;2023-05-10T05:27:34;12.20;99.90
51783;DHT22;37845;53.196;5.638;2023-05-10T05:29:59;12.30;99.90
51783;DHT22;37845;53.196;5.638;2023-05-10T05:32:25;12.20;99.90
51783;DHT22;37845;53.196;5.638;2023-05-10T05:34:51;11.60;99.90
51783;DHT22;37845;53.196;5.638;2023-05-10T05:37:17;12.30;99.90
51783;DHT22;37845;53.196;5.638;2023-05-10T05:39:46;11.00;99.90
51783;DHT22;37845;53.196;5.638;2023-05-10T05:42:15;12.20;99.90
51783;DHT22;37845;53.196;5.638;2023-05-10T05:44:45;11.80;99.90
51783;DHT22;37845;53.196;5.638;2023-05-10T06:02:48;11.20;99.90
51783;DHT22;37845;53.196;5.638;2023-05-10T06:05:14;12.10;99.90
51783;DHT22;37845;53.196;5.638;2023-05-10T06:07:39;12.20;99.90
51783;DHT22;37845;53.196;5.638;2023-05-10T06:10:07;12.20;99.90
51783;DHT22;37845;53.196;5.638;2023-05-10T06:12:43;12.20;99.90
51783;DHT22;37845;53.196;5.638;2023-05-10T06:15:09;12.20;99.90
51783;DHT22;37845;53.196;5.638;2023-05-10T06:17:34;12.20;99.90
51783;DHT22;37845;53.196;5.638;2023-05-10T06:20:00;12.20;99.90
51783;DHT22;37845;53.196;5.638;2023-05-10T06:22:26;12.20;99.90
51783;DHT22;37845;53.196;5.638;2023-05-10T06:24:51;12.20;99.90
51783;DHT22;37845;53.196;5.638;2023-05-10T06:27:17;12.20;99.90
51783;DHT22;37845;53.196;5.638;2023-05-10T06:29:42;12.10;99.90
51783;DHT22;37845;53.196;5.638;2023-05-10T06:32:08;12.20;99.90
51783;DHT22;37845;53.196;5.638;2023-05-10T06:34:34;12.20;99.90
51783;DHT22;37845;53.196;5.638;2023-05-10T06:36:59;12.10;99.90
51783;DHT22;37845;53.196;5.638;2023-05-10T06:39:28;12.20;99.90
51783;DHT22;37845;53.196;5.638;2023-05-10T06:41:54;12.30;99.90
51783;DHT22;37845;53.196;5.638;2023-05-10T06:44:20;12.20;99.90
51783;DHT22;37845;53.196;5.638;2023-05-10T06:46:45;12.20;99.90
51783;DHT22;37845;53.196;5.638;2023-05-10T06:49:14;12.20;99.90
51783;DHT22;37845;53.196;5.638;2023-05-10T06:51:42;12.10;99.90
51783;DHT22;37845;53.196;5.638;2023-05-10T06:54:08;12.10;99.90
51783;DHT22;37845;53.196;5.638;2023-05-10T06:56:33;12.20;99.90
51783;DHT22;37845;53.196;5.638;2023-05-10T06:58:59;12.10;99.90
51783;DHT22;37845;53.196;5.638;2023-05-10T07:01:25;12.20;99.90
51783;DHT22;37845;53.196;5.638;2023-05-10T07:03:50;12.20;99.90
51783;DHT22;37845;53.196;5.638;2023-05-10T07:06:16;12.20;99.90
51783;DHT22;37845;53.196;5.638;2023-05-10T07:08:41;12.20;99.90
51783;DHT22;37845;53.196;5.638;2023-05-10T07:11:07;12.30;99.90
51783;DHT22;37845;53.196;5.638;2023-05-10T07:13:33;12.30;99.90
51783;DHT22;37845;53.196;5.638;2023-05-10T07:16:04;12.30;99.90
51783;DHT22;37845;53.196;5.638;2023-05-10T07:18:31;12.30;99.90
51783;DHT22;37845;53.196;5.638;2023-05-10T07:20:57;12.30;99.90
51783;DHT22;37845;53.196;5.638;2023-05-10T07:23:26;12.40;99.90
51783;DHT22;37845;53.196;5.638;2023-05-10T07:25:51;13.20;99.90
51783;DHT22;37845;53.196;5.638;2023-05-10T07:28:20;12.30;99.90
51783;DHT22;37845;53.196;5.638;2023-05-10T07:30:46;11.70;99.90
51783;DHT22;37845;53.196;5.638;2023-05-10T07:33:12;12.40;99.90
51783;DHT22;37845;53.196;5.638;2023-05-10T07:35:38;12.50;99.90
51783;DHT22;37845;53.196;5.638;2023-05-10T07:38:03;12.50;99.90
51783;DHT22;37845;53.196;5.638;2023-05-10T07:40:29;12.60;99.90
51783;DHT22;37845;53.196;5.638;2023-05-10T07:42:55;12.60;99.90
51783;DHT22;37845;53.196;5.638;2023-05-10T07:45:21;12.60;99.90
51783;DHT22;37845;53.196;5.638;2023-05-10T07:47:46;12.60;99.90
51783;DHT22;37845;53.196;5.638;2023-05-10T07:50:12;12.60;99.90
51783;DHT22;37845;53.196;5.638;2023-05-10T07:52:38;12.60;99.90
51783;DHT22;37845;53.196;5.638;2023-05-10T07:55:04;12.70;99.90
51783;DHT22;37845;53.196;5.638;2023-05-10T07:57:30;12.70;99.90
51783;DHT22;37845;53.196;5.638;2023-05-10T07:59:56;12.70;99.90
51783;DHT22;37845;53.196;5.638;2023-05-10T08:02:21;12.70;99.90
51783;DHT22;37845;53.196;5.638;2023-05-10T08:04:50;12.70;99.90
51783;DHT22;37845;53.196;5.638;2023-05-10T08:07:16;12.60;99.90
51783;DHT22;37845;53.196;5.638;2023-05-10T08:09:41;12.70;99.90
51783;DHT22;37845;53.196;5.638;2023-05-10T08:12:15;12.70;99.90
51783;DHT22;37845;53.196;5.638;2023-05-10T08:14:41;12.70;99.90
51783;DHT22;37845;53.196;5.638;2023-05-10T08:17:07;12.70;99.90
51783;DHT22;37845;53.196;5.638;2023-05-10T08:19:32;12.70;99.90
51783;DHT22;37845;53.196;5.638;2023-05-10T08:22:03;12.60;99.90
51783;DHT22;37845;53.196;5.638;2023-05-10T08:24:29;12.70;99.90
51783;DHT22;37845;53.196;5.638;2023-05-10T08:26:54;12.70;99.90
51783;DHT22;37845;53.196;5.638;2023-05-10T08:29:20;12.80;99.90
51783;DHT22;37845;53.196;5.638;2023-05-10T08:31:46;12.80;99.90
51783;DHT22;37845;53.196;5.638;2023-05-10T08:34:11;12.90;99.90
51783;DHT22;37845;53.196;5.638;2023-05-10T08:36:40;12.90;99.90
51783;DHT22;37845;53.196;5.638;2023-05-10T08:39:22;13.00;99.90
51783;DHT22;37845;53.196;5.638;2023-05-10T08:41:48;12.90;99.90
51783;DHT22;37845;53.196;5.638;2023-05-10T08:44:19;13.00;99.90
51783;DHT22;37845;53.196;5.638;2023-05-10T08:46:46;13.10;99.90
51783;DHT22;37845;53.196;5.638;2023-05-10T08:49:13;13.00;99.90
51783;DHT22;37845;53.196;5.638;2023-05-10T08:51:40;13.00;99.90
51783;DHT22;37845;53.196;5.638;2023-05-10T08:54:08;12.90;99.90
51783;DHT22;37845;53.196;5.638;2023-05-10T08:56:39;13.00;99.90
51783;DHT22;37845;53.196;5.638;2023-05-10T08:59:05;13.10;99.90
51783;DHT22;37845;53.196;5.638;2023-05-10T09:01:38;13.20;99.90
51783;DHT22;37845;53.196;5.638;2023-05-10T09:04:10;13.10;99.90
51783;DHT22;37845;53.196;5.638;2023-05-10T09:06:38;13.20;99.90
51783;DHT22;37845;53.196;5.638;2023-05-10T09:09:04;13.00;99.90
51783;DHT22;37845;53.196;5.638;2023-05-10T09:11:30;13.10;99.90
51783;DHT22;37845;53.196;5.638;2023-05-10T09:14:02;13.10;99.90
51783;DHT22;37845;53.196;5.638;2023-05-10T09:16:41;12.00;99.90
51783;DHT22;37845;53.196;5.638;2023-05-10T09:19:10;13.30;99.90
51783;DHT22;37845;53.196;5.638;2023-05-10T09:21:36;13.90;99.90
51783;DHT22;37845;53.196;5.638;2023-05-10T09:30:01;13.20;99.90
51783;DHT22;37845;53.196;5.638;2023-05-10T09:32:45;12.80;99.90
51783;DHT22;37845;53.196;5.638;2023-05-10T09:35:17;13.30;99.90
51783;DHT22;37845;53.196;5.638;2023-05-10T09:37:44;13.40;99.90
51783;DHT22;37845;53.196;5.638;2023-05-10T09:40:38;13.00;99.90
51783;DHT22;37845;53.196;5.638;2023-05-10T09:46:08;13.80;99.90
51783;DHT22;37845;53.196;5.638;2023-05-10T09:48:46;13.60;99.90
51783;DHT22;37845;53.196;5.638;2023-05-10T09:51:21;12.50;99.90
51783;DHT22;37845;53.196;5.638;2023-05-10T09:56:49;13.40;99.90
51783;DHT22;37845;53.196;5.638;2023-05-10T09:59:17;12.70;99.90
51783;DHT22;37845;53.196;5.638;2023-05-10T10:01:57;13.50;99.90
51783;DHT22;37845;53.196;5.638;2023-05-10T10:04:23;13.60;99.90
51783;DHT22;37845;53.196;5.638;2023-05-10T10:07:00;13.20;99.90
51783;DHT22;37845;53.196;5.638;2023-05-10T10:09:26;13.60;99.90
51783;DHT22;37845;53.196;5.638;2023-05-10T10:11:52;13.70;99.90
51783;DHT22;37845;53.196;5.638;2023-05-10T10:14:25;13.80;99.90
51783;DHT22;37845;53.196;5.638;2023-05-10T10:16:54;13.90;99.90
51783;DHT22;37845;53.196;5.638;2023-05-10T10:30:14;13.10;99.90
51783;DHT22;37845;53.196;5.638;2023-05-10T10:36:47;14.40;99.90
51783;DHT22;37845;53.196;5.638;2023-05-10T10:39:23;14.60;99.90
51783;DHT22;37845;53.196;5.638;2023-05-10T10:41:55;14.40;99.90
51783;DHT22;37845;53.196;5.638;2023-05-10T10:47:01;14.60;99.90
51783;DHT22;37845;53.196;5.638;2023-05-10T10:49:28;14.50;99.90
51783;DHT22;37845;53.196;5.638;2023-05-10T10:52:27;13.70;99.90
51783;DHT22;37845;53.196;5.638;2023-05-10T10:55:27;14.60;99.90
51783;DHT22;37845;53.196;5.638;2023-05-10T10:58:18;14.10;99.90
51783;DHT22;37845;53.196;5.638;2023-05-10T11:01:23;14.50;99.90
51783;DHT22;37845;53.196;5.638;2023-05-10T11:04:19;14.50;99.90
51783;DHT22;37845;53.196;5.638;2023-05-10T11:10:22;14.60;99.90
51783;DHT22;37845;53.196;5.638;2023-05-10T11:15:40;14.80;99.90
51783;DHT22;37845;53.196;5.638;2023-05-10T11:18:39;14.70;99.90
51783;DHT22;37845;53.196;5.638;2023-05-10T11:21:01;14.70;99.90
51783;DHT22;37845;53.196;5.638;2023-05-10T11:23:49;14.60;99.90
51783;DHT22;37845;53.196;5.638;2023-05-10T11:26:15;14.60;99.90
51783;DHT22;37845;53.196;5.638;2023-05-10T11:28:42;14.70;99.90
51783;DHT22;37845;53.196;5.638;2023-05-10T11:31:08;14.80;99.90
51783;DHT22;37845;53.196;5.638;2023-05-10T11:33:46;13.90;99.90
51783;DHT22;37845;53.196;5.638;2023-05-10T11:36:13;14.80;99.90
51783;DHT22;37845;53.196;5.638;2023-05-10T11:38:39;14.80;99.90
51783;DHT22;37845;53.196;5.638;2023-05-10T11:41:05;14.90;99.90
51783;DHT22;37845;53.196;5.638;2023-05-10T11:43:31;14.90;99.90
51783;DHT22;37845;53.196;5.638;2023-05-10T11:45:57;15.00;99.90
51783;DHT22;37845;53.196;5.638;2023-05-10T11:48:23;15.00;99.90
51783;DHT22;37845;53.196;5.638;2023-05-10T11:50:49;15.20;99.90
51783;DHT22;37845;53.196;5.638;2023-05-10T11:53:31;15.20;99.90
51783;DHT22;37845;53.196;5.638;2023-05-10T11:56:05;15.20;99.90
51783;DHT22;37845;53.196;5.638;2023-05-10T11:58:37;15.10;99.90
51783;DHT22;37845;53.196;5.638;2023-05-10T12:01:06;15.30;99.90
51783;DHT22;37845;53.196;5.638;2023-05-10T12:03:32;15.50;99.90
51783;DHT22;37845;53.196;5.638;2023-05-10T12:09:04;15.50;99.90
51783;DHT22;37845;53.196;5.638;2023-05-10T12:11:56;15.60;99.90
51783;DHT22;37845;53.196;5.638;2023-05-10T12:14:22;15.40;99.90
51783;DHT22;37845;53.196;5.638;2023-05-10T12:16:48;14.80;99.90
51783;DHT22;37845;53.196;5.638;2023-05-10T14:16:55;15.20;99.90
51783;DHT22;37845;53.196;5.638;2023-05-10T14:19:21;15.20;99.90
51783;DHT22;37845;53.196;5.638;2023-05-10T14:21:47;15.20;99.90
51783;DHT22;37845;53.196;5.638;2023-05-10T14:24:21;14.20;99.90
51783;DHT22;37845;53.196;5.638;2023-05-10T14:26:47;15.00;99.90
51783;DHT22;37845;53.196;5.638;2023-05-10T14:29:22;14.90;99.90
51783;DHT22;37845;53.196;5.638;2023-05-10T14:31:50;14.80;99.90
51783;DHT22;37845;53.196;5.638;2023-05-10T14:34:16;14.80;99.90
51783;DHT22;37845;53.196;5.638;2023-05-10T14:36:42;14.70;99.90
51783;DHT22;37845;53.196;5.638;2023-05-10T14:39:08;14.70;99.90
51783;DHT22;37845;53.196;5.638;2023-05-10T14:41:35;14.70;99.90
51783;DHT22;37845;53.196;5.638;2023-05-10T14:44:01;14.40;99.90
51783;DHT22;37845;53.196;5.638;2023-05-10T14:46:35;14.60;99.90
51783;DHT22;37845;53.196;5.638;2023-05-10T14:49:04;14.50;99.90
51783;DHT22;37845;53.196;5.638;2023-05-10T14:51:30;14.30;99.90
51783;DHT22;37845;53.196;5.638;2023-05-10T14:53:57;14.40;99.90
51783;DHT22;37845;53.196;5.638;2023-05-10T14:56:22;14.30;99.90
51783;DHT22;37845;53.196;5.638;2023-05-10T14:58:49;14.40;99.90
51783;DHT22;37845;53.196;5.638;2023-05-10T15:01:15;14.50;99.90
51783;DHT22;37845;53.196;5.638;2023-05-10T15:03:40;14.40;99.90
51783;DHT22;37845;53.196;5.638;2023-05-10T15:06:07;14.30;99.90
51783;DHT22;37845;53.196;5.638;2023-05-10T15:08:36;14.40;99.90
51783;DHT22;37845;53.196;5.638;2023-05-10T15:11:07;14.50;99.90
51783;DHT22;37845;53.196;5.638;2023-05-10T15:13:33;14.60;99.90
51783;DHT22;37845;53.196;5.638;2023-05-10T15:15:59;14.60;99.90
51783;DHT22;37845;53.196;5.638;2023-05-10T15:18:24;14.70;99.90
51783;DHT22;37845;53.196;5.638;2023-05-10T15:20:51;14.70;99.90
51783;DHT22;37845;53.196;5.638;2023-05-10T15:23:21;14.70;99.90
51783;DHT22;37845;53.196;5.638;2023-05-10T15:25:48;14.70;99.90
51783;DHT22;37845;53.196;5.638;2023-05-10T15:28:21;14.80;99.90
51783;DHT22;37845;53.196;5.638;2023-05-10T15:30:47;14.70;99.90
51783;DHT22;37845;53.196;5.638;2023-05-10T15:33:18;14.60;99.90
51783;DHT22;37845;53.196;5.638;2023-05-10T15:35:44;13.90;99.90
51783;DHT22;37845;53.196;5.638;2023-05-10T15:38:10;14.60;99.90
51783;DHT22;37845;53.196;5.638;2023-05-10T15:40:38;14.70;99.90
51783;DHT22;37845;53.196;5.638;2023-05-10T15:43:04;14.60;99.90
51783;DHT22;37845;53.196;5.638;2023-05-10T15:45:33;14.70;99.90
51783;DHT22;37845;53.196;5.638;2023-05-10T15:48:01;14.60;99.90
51783;DHT22;37845;53.196;5.638;2023-05-10T15:50:27;14.70;99.90
51783;DHT22;37845;53.196;5.638;2023-05-10T15:52:53;14.70;99.90
51783;DHT22;37845;53.196;5.638;2023-05-10T15:55:18;14.60;99.90
51783;DHT22;37845;53.196;5.638;2023-05-10T15:57:44;14.40;99.90
51783;DHT22;37845;53.196;5.638;2023-05-10T16:00:10;14.60;99.90
51783;DHT22;37845;53.196;5.638;2023-05-10T16:02:36;14.40;99.90
51783;DHT22;37845;53.196;5.638;2023-05-10T16:05:02;14.30;99.90
51783;DHT22;37845;53.196;5.638;2023-05-10T16:07:34;14.40;99.90
51783;DHT22;37845;53.196;5.638;2023-05-10T16:10:02;14.30;99.90
51783;DHT22;37845;53.196;5.638;2023-05-10T16:12:31;14.20;99.90
51783;DHT22;37845;53.196;5.638;2023-05-10T16:17:24;14.20;99.90
51783;DHT22;37845;53.196;5.638;2023-05-10T16:19:53;14.30;99.90
51783;DHT22;37845;53.196;5.638;2023-05-10T16:22:28;14.20;99.90
51783;DHT22;37845;53.196;5.638;2023-05-10T16:24:57;14.20;99.90
51783;DHT22;37845;53.196;5.638;2023-05-10T16:27:23;14.20;99.90
51783;DHT22;37845;53.196;5.638;2023-05-10T16:29:55;14.20;99.90
51783;DHT22;37845;53.196;5.638;2023-05-10T16:32:21;14.10;99.90
51783;DHT22;37845;53.196;5.638;2023-05-10T16:34:52;14.10;99.90
51783;DHT22;37845;53.196;5.638;2023-05-10T16:37:18;14.10;99.90
51783;DHT22;37845;53.196;5.638;2023-05-10T16:39:43;14.10;99.90
51783;DHT22;37845;53.196;5.638;2023-05-10T16:42:09;14.00;99.90
51783;DHT22;37845;53.196;5.638;2023-05-10T16:44:38;13.50;99.90
51783;DHT22;37845;53.196;5.638;2023-05-10T16:47:04;13.90;99.90
51783;DHT22;37845;53.196;5.638;2023-05-10T16:49:35;13.90;99.90
51783;DHT22;37845;53.196;5.638;2023-05-10T16:52:07;13.80;99.90
51783;DHT22;37845;53.196;5.638;2023-05-10T16:54:32;13.80;99.90
51783;DHT22;37845;53.196;5.638;2023-05-10T16:56:58;13.80;99.90
51783;DHT22;37845;53.196;5.638;2023-05-10T16:59:23;13.80;99.90
51783;DHT22;37845;53.196;5.638;2023-05-10T17:01:49;13.80;99.90
51783;DHT22;37845;53.196;5.638;2023-05-10T17:04:17;13.90;99.90
51783;DHT22;37845;53.196;5.638;2023-05-10T17:06:43;13.90;99.90
51783;DHT22;37845;53.196;5.638;2023-05-10T17:09:08;13.90;99.90
51783;DHT22;37845;53.196;5.638;2023-05-10T17:11:34;14.00;99.90
51783;DHT22;37845;53.196;5.638;2023-05-10T17:14:00;13.90;99.90
51783;DHT22;37845;53.196;5.638;2023-05-10T17:16:26;13.80;99.90
51783;DHT22;37845;53.196;5.638;2023-05-10T17:18:51;13.90;99.90
51783;DHT22;37845;53.196;5.638;2023-05-10T17:21:17;13.90;99.90
51783;DHT22;37845;53.196;5.638;2023-05-10T17:23:48;13.70;99.90
51783;DHT22;37845;53.196;5.638;2023-05-10T17:26:13;13.70;99.90
51783;DHT22;37845;53.196;5.638;2023-05-10T17:28:39;13.70;99.90
51783;DHT22;37845;53.196;5.638;2023-05-10T17:31:05;13.70;99.90
51783;DHT22;37845;53.196;5.638;2023-05-10T17:33:30;13.60;99.90
51783;DHT22;37845;53.196;5.638;2023-05-10T17:35:57;13.60;99.90
51783;DHT22;37845;53.196;5.638;2023-05-10T17:38:38;13.60;99.90
51783;DHT22;37845;53.196;5.638;2023-05-10T17:41:04;13.60;99.90
51783;DHT22;37845;53.196;5.638;2023-05-10T17:43:29;13.60;99.90
51783;DHT22;37845;53.196;5.638;2023-05-10T17:45:55;13.50;99.90
51783;DHT22;37845;53.196;5.638;2023-05-10T17:48:21;13.40;99.90
51783;DHT22;37845;53.196;5.638;2023-05-10T17:50:48;13.50;99.90
51783;DHT22;37845;53.196;5.638;2023-05-10T17:53:14;13.50;99.90
51783;DHT22;37845;53.196;5.638;2023-05-10T17:55:42;13.60;99.90
51783;DHT22;37845;53.196;5.638;2023-05-10T17:58:11;13.60;99.90
51783;DHT22;37845;53.196;5.638;2023-05-10T18:00:37;13.50;99.90
51783;DHT22;37845;53.196;5.638;2023-05-10T18:05:59;13.30;99.90
51783;DHT22;37845;53.196;5.638;2023-05-10T18:08:31;13.30;99.90
51783;DHT22;37845;53.196;5.638;2023-05-10T18:11:12;13.40;99.90
51783;DHT22;37845;53.196;5.638;2023-05-10T18:13:41;13.50;99.90
51783;DHT22;37845;53.196;5.638;2023-05-10T18:16:10;12.90;99.90
51783;DHT22;37845;53.196;5.638;2023-05-10T18:18:44;14.10;99.90
51783;DHT22;37845;53.196;5.638;2023-05-10T18:21:09;13.30;99.90
51783;DHT22;37845;53.196;5.638;2023-05-10T18:23:44;13.60;99.90
51783;DHT22;37845;53.196;5.638;2023-05-10T18:26:10;13.40;99.90
51783;DHT22;37845;53.196;5.638;2023-05-10T18:28:37;13.30;99.90
51783;DHT22;37845;53.196;5.638;2023-05-10T18:31:04;13.20;99.90
51783;DHT22;37845;53.196;5.638;2023-05-10T18:33:30;13.10;99.90
51783;DHT22;37845;53.196;5.638;2023-05-10T18:35:55;13.10;99.90
51783;DHT22;37845;53.196;5.638;2023-05-10T18:38:21;12.20;99.90
51783;DHT22;37845;53.196;5.638;2023-05-10T18:40:47;13.10;99.90
51783;DHT22;37845;53.196;5.638;2023-05-10T18:43:13;13.00;99.90
51783;DHT22;37845;53.196;5.638;2023-05-10T18:45:38;13.10;99.90
51783;DHT22;37845;53.196;5.638;2023-05-10T18:48:04;12.90;99.90
51783;DHT22;37845;53.196;5.638;2023-05-10T18:50:31;13.00;99.90
51783;DHT22;37845;53.196;5.638;2023-05-10T18:52:58;13.00;99.90
51783;DHT22;37845;53.196;5.638;2023-05-10T18:55:23;12.90;99.90
51783;DHT22;37845;53.196;5.638;2023-05-10T18:57:52;12.90;99.90
51783;DHT22;37845;53.196;5.638;2023-05-10T19:00:18;12.90;99.90
51783;DHT22;37845;53.196;5.638;2023-05-10T19:02:44;12.90;99.90
51783;DHT22;37845;53.196;5.638;2023-05-10T19:05:12;12.90;99.90
51783;DHT22;37845;53.196;5.638;2023-05-10T19:07:40;12.90;99.90
51783;DHT22;37845;53.196;5.638;2023-05-10T19:10:11;12.80;99.90
51783;DHT22;37845;53.196;5.638;2023-05-10T19:12:37;12.80;99.90
51783;DHT22;37845;53.196;5.638;2023-05-10T19:15:04;11.80;99.90
51783;DHT22;37845;53.196;5.638;2023-05-10T19:17:30;12.70;99.90
51783;DHT22;37845;53.196;5.638;2023-05-10T19:19:56;11.60;99.90
51783;DHT22;37845;53.196;5.638;2023-05-10T19:22:31;12.80;99.90
51783;DHT22;37845;53.196;5.638;2023-05-10T19:24:56;12.70;99.90
51783;DHT22;37845;53.196;5.638;2023-05-10T19:27:25;12.60;99.90
51783;DHT22;37845;53.196;5.638;2023-05-10T19:29:52;12.60;99.90
51783;DHT22;37845;53.196;5.638;2023-05-10T19:32:23;12.50;99.90
51783;DHT22;37845;53.196;5.638;2023-05-10T19:34:54;12.60;99.90
51783;DHT22;37845;53.196;5.638;2023-05-10T19:37:20;12.40;99.90
51783;DHT22;37845;53.196;5.638;2023-05-10T19:40:04;12.40;99.90
51783;DHT22;37845;53.196;5.638;2023-05-10T19:42:30;12.50;99.90
51783;DHT22;37845;53.196;5.638;2023-05-10T19:45:24;12.60;99.90
51783;DHT22;37845;53.196;5.638;2023-05-10T19:47:56;12.50;99.90
51783;DHT22;37845;53.196;5.638;2023-05-10T19:50:24;12.50;99.90
51783;DHT22;37845;53.196;5.638;2023-05-10T19:52:53;12.80;99.90
51783;DHT22;37845;53.196;5.638;2023-05-10T19:55:26;12.40;99.90
51783;DHT22;37845;53.196;5.638;2023-05-10T19:57:52;12.40;99.90
51783;DHT22;37845;53.196;5.638;2023-05-10T20:00:17;12.40;99.90
51783;DHT22;37845;53.196;5.638;2023-05-10T20:02:54;12.40;99.90
51783;DHT22;37845;53.196;5.638;2023-05-10T20:05:26;12.30;99.90
51783;DHT22;37845;53.196;5.638;2023-05-10T20:07:52;13.50;99.90
51783;DHT22;37845;53.196;5.638;2023-05-10T20:10:20;12.20;99.90
51783;DHT22;37845;53.196;5.638;2023-05-10T20:15:27;11.60;99.90
51783;DHT22;37845;53.196;5.638;2023-05-10T20:17:59;12.50;99.90
51783;DHT22;37845;53.196;5.638;2023-05-10T20:20:25;11.40;99.90
51783;DHT22;37845;53.196;5.638;2023-05-10T20:22:50;12.30;99.90
51783;DHT22;37845;53.196;5.638;2023-05-10T20:25:19;12.30;99.90
51783;DHT22;37845;53.196;5.638;2023-05-10T20:27:45;12.20;99.90
51783;DHT22;37845;53.196;5.638;2023-05-10T20:30:11;12.30;99.90
51783;DHT22;37845;53.196;5.638;2023-05-10T20:32:38;12.30;99.90
51783;DHT22;37845;53.196;5.638;2023-05-10T20:38:05;11.30;99.90
51783;DHT22;37845;53.196;5.638;2023-05-10T20:40:33;12.30;99.90
51783;DHT22;37845;53.196;5.638;2023-05-10T20:43:08;12.40;99.90
51783;DHT22;37845;53.196;5.638;2023-05-10T20:45:35;13.40;99.90
51783;DHT22;37845;53.196;5.638;2023-05-10T20:48:00;12.30;99.90
51783;DHT22;37845;53.196;5.638;2023-05-10T20:50:26;12.30;99.90
51783;DHT22;37845;53.196;5.638;2023-05-10T20:52:51;12.40;99.90
51783;DHT22;37845;53.196;5.638;2023-05-10T20:55:17;12.20;99.90
51783;DHT22;37845;53.196;5.638;2023-05-10T20:57:43;12.20;99.90
51783;DHT22;37845;53.196;5.638;2023-05-10T21:00:09;12.10;99.90
51783;DHT22;37845;53.196;5.638;2023-05-10T21:02:41;12.10;99.90
51783;DHT22;37845;53.196;5.638;2023-05-10T21:05:07;12.00;99.90
51783;DHT22;37845;53.196;5.638;2023-05-10T21:07:33;12.00;99.90
51783;DHT22;37845;53.196;5.638;2023-05-10T21:09:59;12.10;99.90
51783;DHT22;37845;53.196;5.638;2023-05-10T21:12:24;12.00;99.90
51783;DHT22;37845;53.196;5.638;2023-05-10T21:14:50;12.00;99.90
51783;DHT22;37845;53.196;5.638;2023-05-10T21:17:16;12.00;99.90
51783;DHT22;37845;53.196;5.638;2023-05-10T21:19:41;12.10;99.90
51783;DHT22;37845;53.196;5.638;2023-05-10T21:22:07;11.90;99.90
51783;DHT22;37845;53.196;5.638;2023-05-10T21:24:34;11.90;99.90
51783;DHT22;37845;53.196;5.638;2023-05-10T21:27:00;11.90;99.90